Time;durP1;ratioP1;P1;durP2;ratioP2;P2;SDS_P1;SDS_P2;PMS_P1;PMS_P2;Temp;Humidity;BMP_temperature;BMP_pressure;BME280_temperature;BME280_humidity;BME280_pressure;Samples;Min_cycle;Max_cycle;Signal;HPM_P1;HPM_P2
2021/01/11 00:01:06;;;;;;;4.97;2.10;;;;;;;15.70;44.85;101825.06;5019597;28;20036;-78
2021/01/11 00:03:32;;;;;;;4.43;2.45;;;;;;;15.70;44.99;101823.13;5036824;28;20030;-77
2021/01/11 00:05:57;;;;;;;4.70;2.30;;;;;;;15.58;45.29;101824.88;5015977;28;20381;-78
2021/01/11 00:08:23;;;;;;;3.83;2.28;;;;;;;15.45;45.49;101821.91;5041807;28;20037;-77
2021/01/11 00:10:50;;;;;;;3.58;2.28;;;;;;;15.85;44.40;101826.56;5052031;28;20215;-78
2021/01/11 00:13:15;;;;;;;6.57;2.35;;;;;;;15.94;44.36;101822.66;5053770;28;20463;-77
2021/01/11 00:15:41;;;;;;;6.60;2.63;;;;;;;15.87;44.57;101813.25;5053758;28;20079;-77
2021/01/11 00:18:07;;;;;;;6.35;2.50;;;;;;;15.95;44.00;101824.31;5053633;28;20036;-77
2021/01/11 00:20:32;;;;;;;5.70;2.78;;;;;;;15.63;45.40;101821.97;5035865;28;20021;-77
2021/01/11 00:22:58;;;;;;;7.80;2.60;;;;;;;15.87;44.71;101813.25;5053482;28;20384;-77
2021/01/11 00:25:23;;;;;;;7.50;2.58;;;;;;;15.89;44.59;101811.00;5053515;28;20028;-76
2021/01/11 00:27:49;;;;;;;6.10;2.72;;;;;;;16.43;43.15;101803.22;5035624;28;20430;-76
2021/01/11 00:30:16;;;;;;;7.03;2.72;;;;;;;16.17;43.80;101801.28;5053271;28;20041;-77
2021/01/11 00:32:41;;;;;;;5.10;3.42;;;;;;;16.22;43.72;101797.53;5053477;28;20059;-77
2021/01/11 00:35:08;;;;;;;5.53;2.53;;;;;;;15.54;45.18;101797.13;5053479;28;20048;-75
2021/01/11 00:37:34;;;;;;;4.38;2.28;;;;;;;16.11;44.04;101805.34;5035342;28;20032;-76
2021/01/11 00:40:00;;;;;;;3.63;2.30;;;;;;;16.11;43.88;101791.56;5035398;28;20033;-77
2021/01/11 00:42:25;;;;;;;4.43;3.03;;;;;;;15.85;44.46;101797.03;5035351;28;20400;-76
2021/01/11 00:44:51;;;;;;;7.35;2.50;;;;;;;16.15;43.87;101789.75;5053148;28;20029;-76
2021/01/11 00:47:17;;;;;;;4.32;2.45;;;;;;;16.21;43.59;101784.91;5053179;28;20029;-76
2021/01/11 00:49:43;;;;;;;3.95;2.20;;;;;;;16.15;43.78;101780.69;5035271;28;20032;-75
2021/01/11 00:52:09;;;;;;;3.20;2.10;;;;;;;16.15;43.80;101775.97;5035211;28;20483;-76
2021/01/11 00:54:35;;;;;;;3.40;2.20;;;;;;;16.05;43.83;101779.88;5053088;28;20060;-75
2021/01/11 00:57:00;;;;;;;2.78;1.95;;;;;;;15.77;44.71;101786.81;5052785;28;20036;-76
2021/01/11 00:59:26;;;;;;;4.68;1.83;;;;;;;15.60;45.00;101767.50;5035114;28;20028;-76
2021/01/11 01:01:56;;;;;;;6.80;2.28;;;;;;;15.87;44.37;101770.00;5052578;28;20060;-76
2021/01/11 01:04:22;;;;;;;3.35;1.92;;;;;;;16.41;43.14;101745.63;5032567;28;20028;-76
2021/01/11 01:06:48;;;;;;;5.95;1.95;;;;;;;15.88;44.32;101748.75;5035019;28;20063;-77
2021/01/11 01:09:14;;;;;;;3.30;2.20;;;;;;;15.87;44.49;101742.44;5034966;28;20435;-77
2021/01/11 01:11:42;;;;;;;4.13;2.17;;;;;;;15.92;44.02;101749.72;5052796;28;20032;-78
2021/01/11 01:14:08;;;;;;;4.35;2.00;;;;;;;16.15;43.60;101742.06;5052804;28;20028;-77
2021/01/11 01:16:35;;;;;;;3.45;2.00;;;;;;;16.40;43.04;101741.25;5052600;28;20044;-76
2021/01/11 01:19:01;;;;;;;7.72;2.33;;;;;;;16.76;41.96;101740.00;5052059;28;20021;-76
2021/01/11 01:21:26;;;;;;;8.27;2.22;;;;;;;16.52;42.40;101735.03;5034747;28;20021;-76
2021/01/11 01:23:53;;;;;;;4.32;2.10;;;;;;;16.42;42.81;101730.69;5052516;28;20036;-76
2021/01/11 01:26:19;;;;;;;4.40;2.67;;;;;;;16.43;42.66;101737.00;5052697;28;20029;-77
2021/01/11 01:28:45;;;;;;;6.32;2.63;;;;;;;16.43;42.64;101737.81;5052554;28;20033;-76
2021/01/11 01:31:11;;;;;;;5.30;1.88;;;;;;;16.40;42.86;101732.13;5052258;28;20592;-77
2021/01/11 01:33:36;;;;;;;25.75;3.33;;;;;;;16.44;42.61;101733.91;5034602;28;20022;-76
2021/01/11 01:36:02;;;;;;;8.60;2.63;;;;;;;16.60;42.14;101735.00;5052189;28;20024;-77
2021/01/11 01:38:28;;;;;;;7.00;2.17;;;;;;;16.12;43.28;101731.72;5052325;28;20029;-77
2021/01/11 01:40:54;;;;;;;4.85;2.30;;;;;;;15.73;44.31;101728.81;5034452;28;20027;-77
2021/01/11 01:43:20;;;;;;;3.28;1.98;;;;;;;15.54;44.67;101734.59;5052408;28;20025;-77
2021/01/11 01:45:46;;;;;;;4.03;2.30;;;;;;;15.40;45.18;101733.09;5052362;28;20104;-78
2021/01/11 01:48:11;;;;;;;6.32;2.45;;;;;;;15.43;44.95;101726.97;5034481;28;20021;-77
2021/01/11 01:50:39;;;;;;;7.10;2.30;;;;;;;15.63;44.41;101714.53;5052234;28;20356;-76
2021/01/11 01:53:04;;;;;;;4.85;2.05;;;;;;;15.77;44.01;101720.69;5052266;28;20032;-77
2021/01/11 01:55:30;;;;;;;5.05;2.40;;;;;;;15.96;43.37;101706.59;5052288;28;20021;-76
2021/01/11 01:58:02;;;;;;;10.27;2.80;;;;;;;15.97;43.38;101706.25;5052228;28;20064;-76
2021/01/11 02:00:28;;;;;;;8.20;2.97;;;;;;;15.69;44.41;101699.47;5052246;28;20480;-76
2021/01/11 02:02:53;;;;;;;5.68;2.45;;;;;;;16.16;43.11;101688.53;5052233;28;20115;-76
2021/01/11 02:05:19;;;;;;;12.48;3.08;;;;;;;15.88;43.83;101682.63;5052242;28;20032;-76
2021/01/11 02:07:56;;;;;;;4.47;2.60;;;;;;;15.93;43.39;101671.41;5052043;28;20025;-77
2021/01/11 02:10:31;;;;;;;6.75;2.50;;;;;;;15.83;43.86;101669.81;5052236;28;20024;-77
2021/01/11 02:13:31;;;;;;;6.60;1.88;;;;;;;15.78;44.02;101679.03;5052192;28;20021;-77
2021/01/11 02:16:19;;;;;;;6.10;1.83;;;;;;;15.66;44.44;101669.81;5052112;28;20075;-76
2021/01/11 02:19:03;;;;;;;9.13;1.83;;;;;;;15.65;44.74;101666.25;5051955;28;20052;-76
2021/01/11 02:22:18;;;;;;;3.97;1.88;;;;;;;15.55;45.15;101680.31;5051969;28;20108;-76
2021/01/11 02:25:17;;;;;;;2.78;1.70;;;;;;;15.48;45.32;101679.97;5052023;28;20021;-76
2021/01/11 02:27:46;;;;;;;2.58;1.38;;;;;;;15.61;45.31;101668.03;5051751;28;20033;-77
2021/01/11 02:30:21;;;;;;;3.83;1.25;;;;;;;15.69;45.37;101661.69;5054262;28;20506;-77
2021/01/11 02:32:56;;;;;;;5.68;1.40;;;;;;;15.65;45.15;101660.75;5055748;28;20029;-77
2021/01/11 02:35:22;;;;;;;4.80;1.40;;;;;;;15.73;45.25;101659.94;5055671;28;20396;-76
2021/01/11 02:37:49;;;;;;;3.00;1.55;;;;;;;15.90;44.66;101661.84;5037625;28;20029;-77
2021/01/11 02:40:15;;;;;;;1.73;0.90;;;;;;;15.67;45.54;101652.16;5037568;28;20517;-77
2021/01/11 02:42:40;;;;;;;2.05;1.00;;;;;;;15.45;45.87;101651.16;5037670;28;20029;-76
2021/01/11 02:45:08;;;;;;;1.33;1.00;;;;;;;15.57;45.56;101652.44;5055557;28;20032;-77
2021/01/11 02:47:59;;;;;;;1.50;0.93;;;;;;;15.61;45.28;101650.66;5037554;28;20377;-78
2021/01/11 02:50:26;;;;;;;1.50;1.15;;;;;;;15.67;45.11;101644.69;5055756;28;20021;-77
2021/01/11 02:53:16;;;;;;;2.50;1.30;;;;;;;15.81;44.83;101644.53;5055356;28;20032;-77
2021/01/11 02:56:07;;;;;;;4.75;1.45;;;;;;;15.46;45.41;101635.44;5055373;28;20472;-77
2021/01/11 02:58:44;;;;;;;2.75;1.13;;;;;;;15.60;45.01;101633.31;5043262;28;20050;-76
2021/01/11 03:01:11;;;;;;;3.20;1.23;;;;;;;15.43;45.67;101628.63;5055273;28;20412;-77
2021/01/11 03:03:39;;;;;;;2.80;1.48;;;;;;;15.64;44.87;101634.34;5037257;28;20032;-77
2021/01/11 03:06:10;;;;;;;3.28;1.45;;;;;;;15.49;45.47;101627.34;5055140;28;20434;-77
2021/01/11 03:08:39;;;;;;;2.50;1.20;;;;;;;15.18;46.21;101621.97;5055099;28;20096;-76
2021/01/11 03:11:05;;;;;;;3.67;1.33;;;;;;;15.53;45.37;101614.53;5055047;28;20017;-77
2021/01/11 03:13:31;;;;;;;2.65;1.38;;;;;;;15.04;46.63;101624.06;5054919;28;20025;-76
2021/01/11 03:15:56;;;;;;;3.55;1.50;;;;;;;15.50;45.43;101614.38;5054906;28;20071;-77
2021/01/11 03:18:22;;;;;;;4.00;1.52;;;;;;;15.29;45.83;101599.63;5054695;28;20082;-78
2021/01/11 03:20:48;;;;;;;3.55;1.02;;;;;;;15.09;46.57;101607.38;5054825;28;20496;-76
2021/01/11 03:23:13;;;;;;;1.85;1.10;;;;;;;15.64;44.96;101606.78;5054806;28;20032;-76
2021/01/11 03:25:42;;;;;;;2.42;1.00;;;;;;;15.47;45.58;101604.81;5054803;28;20095;-77
2021/01/11 03:28:09;;;;;;;2.20;1.27;;;;;;;15.40;45.82;101601.72;5054650;28;20029;-77
2021/01/11 03:30:35;;;;;;;6.43;1.33;;;;;;;15.45;45.57;101604.31;5054341;28;20492;-78
2021/01/11 03:33:00;;;;;;;2.95;0.93;;;;;;;15.56;45.28;101599.28;5054591;28;20032;-77
2021/01/11 03:35:28;;;;;;;3.03;0.88;;;;;;;15.80;44.86;101604.31;5054571;28;20087;-76
2021/01/11 03:37:54;;;;;;;2.00;0.82;;;;;;;15.92;44.52;101601.69;5054422;28;20039;-77
2021/01/11 03:40:20;;;;;;;2.83;1.10;;;;;;;16.05;44.17;101605.41;5054311;28;20063;-77
2021/01/11 03:42:45;;;;;;;2.78;0.80;;;;;;;15.99;44.40;101596.47;5054061;28;20033;-77
2021/01/11 03:45:12;;;;;;;1.98;0.80;;;;;;;15.66;45.44;101598.19;5054468;28;20104;-77
2021/01/11 03:47:37;;;;;;;1.40;0.70;;;;;;;15.85;44.92;101593.13;5054357;28;20048;-76
2021/01/11 03:50:07;;;;;;;2.78;1.08;;;;;;;15.09;46.75;101601.06;5054269;28;20439;-77
2021/01/11 03:52:36;;;;;;;1.60;1.10;;;;;;;15.87;44.90;101592.78;5054322;28;20391;-77
2021/01/11 03:55:06;;;;;;;1.73;0.90;;;;;;;16.14;44.07;101588.81;5053805;28;20064;-77
2021/01/11 03:57:31;;;;;;;1.63;1.00;;;;;;;16.04;44.48;101592.75;5054089;28;20033;-76
2021/01/11 03:59:58;;;;;;;1.73;1.00;;;;;;;15.63;45.81;101585.84;5054047;28;20419;-76
2021/01/11 04:02:24;;;;;;;2.45;0.88;;;;;;;15.67;45.88;101575.00;5036099;28;20035;-77
2021/01/11 04:04:50;;;;;;;2.35;0.90;;;;;;;15.94;44.94;101576.53;5053636;28;20037;-77
2021/01/11 04:07:16;;;;;;;2.75;0.93;;;;;;;15.85;45.45;101573.81;5053947;28;20391;-76
2021/01/11 04:09:42;;;;;;;2.30;1.00;;;;;;;16.01;45.16;101566.63;5053517;28;20451;-77
2021/01/11 04:12:07;;;;;;;6.20;2.03;;;;;;;15.95;45.28;101562.47;5053867;28;20387;-77
2021/01/11 04:14:33;;;;;;;1.65;1.05;;;;;;;15.54;46.42;101549.22;5053342;28;20101;-76
2021/01/11 04:16:59;;;;;;;2.65;1.00;;;;;;;16.19;44.78;101561.06;5053254;28;20056;-77
2021/01/11 04:19:25;;;;;;;3.45;1.60;;;;;;;16.25;44.72;101554.25;5035709;28;20056;-76
2021/01/11 04:21:50;;;;;;;3.65;1.20;;;;;;;16.34;44.38;101558.56;5053671;28;20029;-77
2021/01/11 04:24:16;;;;;;;1.77;0.90;;;;;;;15.99;45.37;101548.81;5053649;28;20039;-76
2021/01/11 04:26:45;;;;;;;2.95;1.02;;;;;;;16.15;44.65;101544.38;5053256;28;20120;-77
2021/01/11 04:29:11;;;;;;;6.88;1.35;;;;;;;16.29;44.51;101541.41;5053044;28;20119;-77
2021/01/11 04:31:37;;;;;;;2.15;0.75;;;;;;;16.31;44.55;101547.38;5035274;28;20133;-77
2021/01/11 04:34:03;;;;;;;5.15;1.23;;;;;;;16.36;44.33;101534.22;5053301;28;20426;-76
2021/01/11 04:36:34;;;;;;;1.00;0.70;;;;;;;16.38;44.14;101528.34;5053409;28;20025;-77
2021/01/11 04:39:01;;;;;;;2.78;0.77;;;;;;;16.36;44.42;101536.97;5035347;28;20039;-76
2021/01/11 04:41:39;;;;;;;1.02;0.73;;;;;;;16.10;45.08;101519.75;5035466;28;20029;-76
2021/01/11 04:44:08;;;;;;;1.02;0.80;;;;;;;15.91;45.38;101519.34;5053321;28;20029;-77
2021/01/11 04:46:34;;;;;;;1.85;0.95;;;;;;;16.17;44.63;101505.44;5053208;28;20029;-77
2021/01/11 04:48:59;;;;;;;4.07;0.90;;;;;;;16.14;44.75;101514.38;5053203;28;20037;-77
2021/01/11 04:51:25;;;;;;;1.92;0.77;;;;;;;16.12;45.07;101505.63;5053121;28;20029;-77
2021/01/11 04:53:52;;;;;;;1.35;0.70;;;;;;;15.93;45.58;101504.09;5052325;28;20702;-77
2021/01/11 04:56:19;;;;;;;1.30;0.60;;;;;;;16.11;45.03;101493.00;5053099;28;20036;-76
2021/01/11 04:58:59;;;;;;;1.98;0.50;;;;;;;15.64;46.65;101490.25;5052944;28;20365;-77
2021/01/11 05:01:27;;;;;;;2.30;0.50;;;;;;;16.17;45.18;101491.66;5052938;28;20025;-77
2021/01/11 05:03:58;;;;;;;2.78;0.70;;;;;;;16.05;45.70;101478.59;5053007;28;20028;-77
2021/01/11 05:06:23;;;;;;;2.97;0.60;;;;;;;16.11;45.48;101476.47;5052860;28;20025;-77
2021/01/11 05:08:49;;;;;;;0.75;0.50;;;;;;;15.87;46.08;101480.63;5052771;28;20094;-77
2021/01/11 05:11:15;;;;;;;2.63;0.60;;;;;;;16.08;45.67;101477.91;5052819;28;20032;-77
2021/01/11 05:13:41;;;;;;;4.47;1.00;;;;;;;16.32;45.08;101466.25;5052787;28;20683;-77
2021/01/11 05:16:14;;;;;;;1.35;0.50;;;;;;;16.24;45.21;101469.88;5034917;28;20395;-77
2021/01/11 05:18:41;;;;;;;1.88;0.60;;;;;;;16.09;45.72;101471.25;5052692;28;20032;-77
2021/01/11 05:21:08;;;;;;;2.80;0.73;;;;;;;15.92;46.34;101463.88;5052620;28;20028;-76
2021/01/11 05:23:39;;;;;;;1.42;0.60;;;;;;;15.64;47.25;101462.69;5052664;28;20522;-77
2021/01/11 05:26:15;;;;;;;2.92;1.38;;;;;;;15.95;46.48;101457.72;5052634;28;20021;-77
2021/01/11 05:28:44;;;;;;;1.95;0.65;;;;;;;16.11;46.01;101457.97;5052760;28;20033;-77
2021/01/11 05:31:09;;;;;;;2.15;0.95;;;;;;;16.18;45.97;101460.22;5052362;28;20128;-77
2021/01/11 05:33:35;;;;;;;4.40;0.80;;;;;;;16.06;46.40;101458.16;5052501;28;20082;-77
2021/01/11 05:36:22;;;;;;;2.45;0.90;;;;;;;15.81;46.89;101471.72;5052531;28;20361;-77
2021/01/11 05:38:47;;;;;;;3.42;1.27;;;;;;;16.17;46.10;101477.88;5034498;28;20510;-77
2021/01/11 05:41:21;;;;;;;3.00;0.80;;;;;;;15.96;46.90;101477.81;5052502;28;20029;-77
2021/01/11 05:43:48;;;;;;;4.32;1.52;;;;;;;15.90;47.06;101466.19;5034485;28;20021;-77
2021/01/11 05:46:27;;;;;;;1.70;0.70;;;;;;;15.99;47.09;101464.19;5034509;28;20120;-77
2021/01/11 05:49:03;;;;;;;6.55;1.52;;;;;;;16.20;46.50;101463.44;5034425;28;20025;-77
2021/01/11 05:51:29;;;;;;;2.47;0.90;;;;;;;16.40;45.80;101468.19;5052406;28;20036;-77
2021/01/11 05:53:56;;;;;;;3.85;1.00;;;;;;;16.35;45.88;101460.09;5052214;28;20067;-76
2021/01/11 05:56:23;;;;;;;7.13;1.90;;;;;;;16.52;45.41;101456.41;5052306;28;20051;-77
2021/01/11 05:59:05;;;;;;;2.85;0.93;;;;;;;16.36;45.87;101445.16;5052284;28;20071;-77
2021/01/11 06:01:31;;;;;;;3.85;1.20;;;;;;;16.54;45.28;101445.81;5052183;28;20507;-77
2021/01/11 06:03:57;;;;;;;3.15;1.10;;;;;;;16.33;46.15;101454.09;5052880;28;20560;-77
2021/01/11 06:06:25;;;;;;;2.55;1.00;;;;;;;16.25;46.18;101441.19;5056251;28;20087;-77
2021/01/11 06:08:52;;;;;;;2.13;0.77;;;;;;;16.36;46.12;101443.19;5056217;28;20033;-77
2021/01/11 06:11:21;;;;;;;4.82;1.08;;;;;;;16.52;45.49;101432.38;5056201;28;20407;-77
2021/01/11 06:13:50;;;;;;;3.47;0.98;;;;;;;16.50;45.50;101412.59;5056210;28;20079;-77
2021/01/11 06:16:18;;;;;;;2.83;1.02;;;;;;;16.52;45.64;101410.31;5038289;28;20063;-76
2021/01/11 06:18:47;;;;;;;2.75;1.00;;;;;;;15.99;47.14;101414.56;5055932;28;20120;-77
2021/01/11 06:21:14;;;;;;;2.38;0.90;;;;;;;16.69;45.27;101420.41;5056021;28;20029;-76
2021/01/11 06:23:39;;;;;;;1.55;0.68;;;;;;;16.45;45.92;101410.03;5037970;28;20025;-77
2021/01/11 06:26:28;;;;;;;4.68;1.02;;;;;;;16.27;46.40;101416.84;5038016;28;20025;-77
2021/01/11 06:28:55;;;;;;;4.38;0.70;;;;;;;16.50;45.78;101412.59;5055811;28;20020;-77
2021/01/11 06:31:34;;;;;;;1.55;0.90;;;;;;;16.36;45.90;101401.03;5055715;28;20045;-77
2021/01/11 06:33:59;;;;;;;2.50;1.10;;;;;;;16.27;46.29;101394.78;5055786;28;20040;-77
2021/01/11 06:36:31;;;;;;;5.22;1.10;;;;;;;16.70;45.30;101410.19;5055756;28;20090;-76
2021/01/11 06:39:06;;;;;;;0.63;0.60;;;;;;;16.14;46.90;101409.63;5055635;28;20021;-76
2021/01/11 06:41:32;;;;;;;9.27;1.20;;;;;;;16.50;45.72;101409.84;5055763;28;20041;-77
2021/01/11 06:44:16;;;;;;;3.95;0.90;;;;;;;16.32;46.31;101405.59;5055570;28;20025;-78
2021/01/11 06:46:43;;;;;;;5.43;0.85;;;;;;;16.51;45.67;101416.97;5055109;28;20029;-76
2021/01/11 06:49:22;;;;;;;5.15;1.10;;;;;;;16.46;45.87;101406.13;5055284;28;20025;-76
2021/01/11 06:51:58;;;;;;;1.77;1.00;;;;;;;16.30;46.11;101403.16;5037516;28;20025;-76
2021/01/11 06:54:35;;;;;;;2.28;0.90;;;;;;;16.74;45.19;101394.56;5055461;28;20029;-76
2021/01/11 06:57:08;;;;;;;3.60;1.67;;;;;;;16.51;45.71;101391.34;5055245;28;20060;-76
2021/01/11 06:59:37;;;;;;;3.33;0.93;;;;;;;16.78;44.98;101392.78;5037320;28;20022;-76
2021/01/11 07:02:24;;;;;;;6.57;1.40;;;;;;;16.65;45.26;101384.41;5055172;28;20071;-75
2021/01/11 07:04:51;;;;;;;3.50;0.70;;;;;;;16.40;45.94;101374.41;5037350;28;20148;-76
2021/01/11 07:07:24;;;;;;;2.22;0.70;;;;;;;16.33;46.20;101360.34;5055166;28;20384;-75
2021/01/11 07:09:59;;;;;;;2.80;0.93;;;;;;;16.60;45.63;101365.28;5055173;28;20374;-75
2021/01/11 07:12:26;;;;;;;3.75;0.80;;;;;;;16.12;46.88;101362.28;5034293;28;20559;-77
2021/01/11 07:15:00;;;;;;;4.63;0.73;;;;;;;16.43;45.79;101346.13;5037165;28;20052;-77
2021/01/11 07:17:39;;;;;;;3.75;0.93;;;;;;;16.20;46.15;101347.63;5054094;28;20067;-77
2021/01/11 07:20:06;;;;;;;3.45;1.00;;;;;;;16.25;46.11;101339.16;5054962;28;20106;-77
2021/01/11 07:22:32;;;;;;;1.05;0.55;;;;;;;16.25;46.41;101330.91;5054817;28;20028;-77
2021/01/11 07:24:57;;;;;;;1.33;0.55;;;;;;;16.16;46.32;101319.91;5036905;28;20025;-77
2021/01/11 07:27:23;;;;;;;3.10;0.80;;;;;;;16.18;46.50;101316.84;5054698;28;20061;-78
2021/01/11 07:29:48;;;;;;;3.58;1.08;;;;;;;15.70;47.79;101313.41;5054480;28;20474;-76
2021/01/11 07:32:14;;;;;;;2.60;0.82;;;;;;;16.08;46.69;101318.84;5054569;28;20028;-77
2021/01/11 07:34:39;;;;;;;2.38;1.02;;;;;;;16.48;45.61;101309.28;5054603;28;20036;-77
2021/01/11 07:37:06;;;;;;;4.28;1.88;;;;;;;16.13;46.57;101319.78;5036667;28;20033;-77
2021/01/11 07:39:33;;;;;;;2.05;0.70;;;;;;;16.01;47.07;101298.47;5054560;28;20028;-76
2021/01/11 07:42:06;;;;;;;1.42;0.80;;;;;;;15.86;47.22;101313.63;5054515;28;20029;-76
2021/01/11 07:44:37;;;;;;;2.85;1.00;;;;;;;16.34;46.19;101313.13;5054423;28;20056;-77
2021/01/11 07:47:11;;;;;;;1.42;0.95;;;;;;;16.40;45.91;101312.88;5054406;28;20061;-76
2021/01/11 07:49:57;;;;;;;4.07;0.80;;;;;;;16.07;46.88;101306.19;5036565;28;20063;-76
2021/01/11 07:52:25;;;;;;;3.60;1.00;;;;;;;16.47;46.14;101300.16;5053580;28;20080;-77
2021/01/11 07:54:58;;;;;;;2.90;0.88;;;;;;;15.97;47.15;101305.81;5036345;28;20056;-77
2021/01/11 07:57:30;;;;;;;3.25;0.98;;;;;;;15.77;48.07;101301.88;5036049;28;20021;-77
2021/01/11 08:00:08;;;;;;;1.65;0.80;;;;;;;15.64;48.39;101284.47;5054143;28;20024;-77
2021/01/11 08:02:34;;;;;;;6.03;2.28;;;;;;;16.01;47.64;101296.50;5036519;28;20112;-76
2021/01/11 08:04:59;;;;;;;2.88;1.10;;;;;;;16.44;46.43;101280.75;5054006;28;20108;-77
2021/01/11 08:07:33;;;;;;;2.03;0.90;;;;;;;15.92;47.97;101290.25;5053919;28;20492;-77
2021/01/11 08:10:00;;;;;;;2.65;1.17;;;;;;;16.26;46.78;101293.91;5053917;28;20096;-75
2021/01/11 08:12:27;;;;;;;4.13;1.33;;;;;;;16.41;46.65;101289.72;5035916;28;20025;-77
2021/01/11 08:15:04;;;;;;;3.53;1.20;;;;;;;16.35;46.85;101286.34;5035961;28;20040;-76
2021/01/11 08:17:32;;;;;;;3.95;1.30;;;;;;;16.43;46.75;101290.16;5034981;28;20388;-77
2021/01/11 08:19:59;;;;;;;3.83;1.02;;;;;;;16.35;47.00;101287.16;5042148;28;20029;-78
2021/01/11 08:22:27;;;;;;;6.00;1.67;;;;;;;16.30;47.17;101294.81;5039438;28;20037;-77
2021/01/11 08:24:57;;;;;;;3.80;1.17;;;;;;;16.13;47.71;101293.03;5039126;28;20032;-76
2021/01/11 08:27:34;;;;;;;3.47;1.10;;;;;;;16.66;46.29;101299.66;5025116;28;20103;-77
2021/01/11 08:30:04;;;;;;;5.13;1.65;;;;;;;16.33;47.15;101302.44;5021469;28;20046;-77
2021/01/11 08:32:32;;;;;;;6.05;1.45;;;;;;;16.26;47.47;101307.69;5016328;28;21170;-77
2021/01/11 08:34:58;;;;;;;5.53;1.63;;;;;;;16.38;47.37;101291.19;5027245;28;20045;-76
2021/01/11 08:37:29;;;;;;;5.35;1.60;;;;;;;16.45;47.00;101296.94;5025803;28;20022;-81
2021/01/11 08:39:57;;;;;;;6.72;1.73;;;;;;;16.30;47.84;101300.34;5024519;28;20036;-81
2021/01/11 08:42:25;;;;;;;2.90;1.23;;;;;;;16.33;47.40;101316.22;5026821;28;20021;-78
2021/01/11 08:44:50;;;;;;;6.60;1.65;;;;;;;16.70;46.49;101305.31;5001098;28;20044;-75
2021/01/11 08:47:25;;;;;;;3.90;1.20;;;;;;;15.96;48.29;101316.03;5018188;28;20029;-81
2021/01/11 08:49:59;;;;;;;2.95;1.63;;;;;;;16.18;48.21;101294.78;5000126;28;20918;-76
2021/01/11 08:52:33;;;;;;;4.75;1.42;;;;;;;16.26;47.69;101289.19;5019046;28;20017;-76
2021/01/11 08:55:12;;;;;;;7.30;1.73;;;;;;;15.84;49.01;101290.31;5000460;28;20052;-76
2021/01/11 08:57:39;;;;;;;8.35;2.20;;;;;;;16.41;47.54;101282.25;4999842;28;20116;-75
2021/01/11 09:00:12;;;;;;;5.30;1.55;;;;;;;16.55;47.07;101274.47;5017245;28;20026;-76
2021/01/11 09:02:46;;;;;;;6.93;2.10;;;;;;;16.86;46.29;101282.28;5017446;28;20480;-84
2021/01/11 09:05:26;;;;;;;5.13;1.45;;;;;;;16.59;47.00;101280.09;5025997;28;20028;-86
2021/01/11 09:07:52;;;;;;;5.13;1.85;;;;;;;16.76;46.78;101274.41;5015479;28;20459;-90
2021/01/11 09:10:32;;;;;;;4.00;1.55;;;;;;;16.55;47.20;101259.84;5016759;28;20420;-87
2021/01/11 09:13:15;;;;;;;9.43;1.50;;;;;;;16.52;47.42;101255.03;5017304;28;20111;-87
2021/01/11 09:15:41;;;;;;;5.25;1.80;;;;;;;16.61;46.98;101241.94;5034385;28;20025;-84
2021/01/11 09:18:07;;;;;;;9.32;2.20;;;;;;;16.84;46.34;101240.41;5016443;28;20518;-90
2021/01/11 09:20:44;;;;;;;22.10;15.63;;;;;;;16.47;47.52;101241.44;5016749;28;20072;-82
2021/01/11 09:23:10;;;;;;;5.57;4.53;;;;;;;16.77;46.77;101225.56;5016495;28;20204;-84
2021/01/11 09:25:37;;;;;;;9.70;7.47;;;;;;;16.80;46.90;101244.19;5015231;28;20057;-82
2021/01/11 09:28:07;;;;;;;5.90;3.22;;;;;;;16.53;47.44;101229.84;5015597;28;20033;-83
2021/01/11 09:30:35;;;;;;;11.57;8.32;;;;;;;16.65;47.19;101232.66;5015649;28;20041;-83
2021/01/11 09:33:01;;;;;;;9.57;2.63;;;;;;;16.93;46.71;101245.84;5016761;28;20029;-84
2021/01/11 09:35:27;;;;;;;8.73;4.15;;;;;;;16.86;46.83;101240.88;5016400;28;20388;-84
2021/01/11 09:37:53;;;;;;;19.58;17.65;;;;;;;17.01;46.48;101225.59;5015405;28;20102;-83
2021/01/11 09:40:21;;;;;;;12.02;4.78;;;;;;;16.81;47.11;101224.53;5015509;28;20061;-85
2021/01/11 09:42:47;;;;;;;48.00;43.53;;;;;;;16.96;46.54;101231.34;5016741;28;20033;-85
2021/01/11 09:45:15;;;;;;;16.33;11.32;;;;;;;16.92;46.91;101231.19;5033766;28;20420;-85
2021/01/11 09:47:43;;;;;;;18.35;16.48;;;;;;;17.03;46.70;101237.09;5016686;28;20029;-85
2021/01/11 09:50:10;;;;;;;8.18;7.35;;;;;;;17.30;45.66;101227.28;5034016;28;20025;-85
2021/01/11 09:52:36;;;;;;;45.03;40.25;;;;;;;17.11;46.36;101229.84;5033267;28;20030;-82
2021/01/11 09:55:06;;;;;;;17.48;14.52;;;;;;;17.20;45.78;101227.75;5034028;28;20025;-89
2021/01/11 09:57:36;;;;;;;4.50;4.05;;;;;;;17.27;45.93;101229.97;5016006;28;20140;-85
2021/01/11 10:00:14;;;;;;;3.25;1.50;;;;;;;17.54;45.17;101229.25;5014992;28;20107;-78
2021/01/11 10:02:46;;;;;;;3.88;1.38;;;;;;;17.30;46.17;101234.78;5016030;28;20017;-87
2021/01/11 10:05:12;;;;;;;2.67;1.48;;;;;;;17.53;45.57;101235.91;5016778;28;20503;-90
2021/01/11 10:07:37;;;;;;;3.95;1.30;;;;;;;17.20;46.15;101223.03;5014854;28;20092;-88
2021/01/11 10:10:03;;;;;;;2.47;1.30;;;;;;;17.31;46.12;101215.13;5015810;28;20026;-86
2021/01/11 10:12:29;;;;;;;5.97;1.35;;;;;;;17.39;46.21;101221.66;5012328;28;20499;-83
2021/01/11 10:14:54;;;;;;;3.88;1.30;;;;;;;17.27;46.67;101229.97;5014720;28;20030;-82
2021/01/11 10:17:20;;;;;;;2.05;1.15;;;;;;;17.59;45.24;101228.97;4999888;28;20033;-77
2021/01/11 10:19:45;;;;;;;4.10;2.00;;;;;;;17.65;45.55;101227.59;5034711;28;20037;-84
2021/01/11 10:22:11;;;;;;;6.05;5.45;;;;;;;17.85;44.93;101238.88;5014193;28;20120;-71
2021/01/11 10:24:36;;;;;;;2.97;2.17;;;;;;;17.62;45.30;101233.81;5032486;28;20388;-74
2021/01/11 10:27:03;;;;;;;11.10;10.18;;;;;;;17.31;46.57;101236.41;5029733;28;20384;-75
2021/01/11 10:29:28;;;;;;;5.75;3.42;;;;;;;17.94;44.79;101231.22;5031205;28;20037;-80
2021/01/11 10:31:54;;;;;;;26.45;24.20;;;;;;;17.82;44.80;101226.53;5031897;28;20037;-72
2021/01/11 10:34:21;;;;;;;6.03;3.55;;;;;;;17.64;45.37;101225.19;5031517;28;20030;-87
2021/01/11 10:36:52;;;;;;;8.40;4.45;;;;;;;17.91;44.88;101232.75;5029186;28;20029;-73
2021/01/11 10:39:25;;;;;;;7.95;3.95;;;;;;;17.24;46.71;101216.84;5032052;28;20037;-83
2021/01/11 10:41:52;;;;;;;5.30;2.90;;;;;;;17.72;45.69;101227.03;5031115;28;20033;-75
2021/01/11 10:44:18;;;;;;;7.68;4.47;;;;;;;17.49;46.39;101215.66;5031984;28;20092;-74
2021/01/11 10:46:44;;;;;;;2.25;1.52;;;;;;;17.40;46.88;101207.50;5038911;28;20369;-82
2021/01/11 10:49:10;;;;;;;2.33;1.20;;;;;;;17.13;47.38;101219.25;5028884;28;20099;-82
2021/01/11 10:51:36;;;;;;;3.03;1.40;;;;;;;17.51;47.01;101218.88;5030809;28;20029;-75
2021/01/11 10:54:03;;;;;;;4.57;1.83;;;;;;;17.09;47.91;101224.69;5033655;28;20029;-71
2021/01/11 10:56:28;;;;;;;5.00;1.42;;;;;;;17.54;47.07;101203.56;5031929;28;20026;-73
2021/01/11 10:58:54;;;;;;;1.83;1.40;;;;;;;17.45;47.38;101225.78;5033702;28;20513;-72
2021/01/11 11:01:20;;;;;;;1.92;1.17;;;;;;;17.69;46.77;101216.66;5032492;28;20056;-71
2021/01/11 11:03:46;;;;;;;1.65;1.02;;;;;;;17.98;45.96;101207.25;5033270;28;20044;-77
2021/01/11 11:06:13;;;;;;;1.80;1.08;;;;;;;17.69;46.41;101213.91;5032599;28;20022;-72
2021/01/11 11:08:39;;;;;;;3.55;1.27;;;;;;;17.89;46.44;101214.88;5032246;28;20037;-73
2021/01/11 11:11:05;;;;;;;1.67;0.90;;;;;;;18.24;45.39;101212.31;5034870;28;20022;-75
2021/01/11 11:13:31;;;;;;;1.60;1.00;;;;;;;18.14;45.61;101204.56;5033998;28;20025;-72
2021/01/11 11:15:57;;;;;;;3.53;1.27;;;;;;;18.05;46.05;101207.44;5033938;28;20064;-79
2021/01/11 11:18:22;;;;;;;3.22;1.10;;;;;;;18.12;46.15;101210.41;5033219;28;20037;-72
2021/01/11 11:20:48;;;;;;;1.10;0.95;;;;;;;17.97;46.47;101203.69;5034352;28;20392;-77
2021/01/11 11:23:16;;;;;;;2.08;1.17;;;;;;;18.34;45.47;101211.81;5016814;28;20022;-75
2021/01/11 11:25:45;;;;;;;2.10;1.40;;;;;;;18.47;45.39;101198.72;5033119;28;20021;-74
2021/01/11 11:28:11;;;;;;;0.70;0.70;;;;;;;17.82;46.47;101196.13;5034075;28;20455;-75
2021/01/11 11:30:37;;;;;;;1.40;0.93;;;;;;;18.02;46.42;101195.13;5034488;28;20042;-75
2021/01/11 11:33:02;;;;;;;2.30;1.10;;;;;;;18.55;45.02;101179.16;5033540;28;20575;-69